sensor_id;sensor_type;location;lat;lon;timestamp;P1;durP1;ratioP1;P2;durP2;ratioP2
1000;SDS011;489;47.806;12.858;2024-01-30T00:01:49;6.43;;;5.23;;
1000;SDS011;489;47.806;12.858;2024-01-30T00:03:50;5.63;;;4.40;;
1000;SDS011;489;47.806;12.858;2024-01-30T00:05:52;4.77;;;4.00;;
1000;SDS011;489;47.806;12.858;2024-01-30T00:07:54;6.23;;;4.07;;
1000;SDS011;489;47.806;12.858;2024-01-30T00:09:56;4.73;;;4.10;;
1000;SDS011;489;47.806;12.858;2024-01-30T00:11:59;5.00;;;3.77;;
1000;SDS011;489;47.806;12.858;2024-01-30T00:14:01;5.67;;;3.93;;
1000;SDS011;489;47.806;12.858;2024-01-30T00:16:04;4.90;;;4.40;;
1000;SDS011;489;47.806;12.858;2024-01-30T00:18:06;5.47;;;4.00;;
1000;SDS011;489;47.806;12.858;2024-01-30T00:20:09;7.60;;;4.80;;
1000;SDS011;489;47.806;12.858;2024-01-30T00:22:12;4.43;;;3.80;;
1000;SDS011;489;47.806;12.858;2024-01-30T00:24:13;7.50;;;4.47;;
1000;SDS011;489;47.806;12.858;2024-01-30T00:26:15;5.30;;;4.20;;
1000;SDS011;489;47.806;12.858;2024-01-30T00:28:19;7.00;;;4.60;;
1000;SDS011;489;47.806;12.858;2024-01-30T00:30:21;5.00;;;4.33;;
1000;SDS011;489;47.806;12.858;2024-01-30T00:32:24;4.67;;;4.10;;
1000;SDS011;489;47.806;12.858;2024-01-30T00:34:26;6.53;;;4.43;;
1000;SDS011;489;47.806;12.858;2024-01-30T00:36:28;4.07;;;3.70;;
1000;SDS011;489;47.806;12.858;2024-01-30T00:38:30;5.20;;;4.13;;
1000;SDS011;489;47.806;12.858;2024-01-30T00:40:31;4.10;;;3.50;;
1000;SDS011;489;47.806;12.858;2024-01-30T00:42:33;4.90;;;4.20;;
1000;SDS011;489;47.806;12.858;2024-01-30T00:44:36;6.60;;;4.10;;
1000;SDS011;489;47.806;12.858;2024-01-30T00:46:39;5.90;;;4.90;;
1000;SDS011;489;47.806;12.858;2024-01-30T00:48:40;5.73;;;4.40;;
1000;SDS011;489;47.806;12.858;2024-01-30T00:50:42;4.67;;;4.17;;
1000;SDS011;489;47.806;12.858;2024-01-30T00:52:44;13.60;;;4.60;;
1000;SDS011;489;47.806;12.858;2024-01-30T00:54:46;5.00;;;3.53;;
1000;SDS011;489;47.806;12.858;2024-01-30T00:56:48;5.57;;;3.80;;
1000;SDS011;489;47.806;12.858;2024-01-30T00:58:50;5.67;;;4.40;;
1000;SDS011;489;47.806;12.858;2024-01-30T01:00:54;4.67;;;4.10;;
1000;SDS011;489;47.806;12.858;2024-01-30T01:02:56;4.73;;;4.13;;
1000;SDS011;489;47.806;12.858;2024-01-30T01:04:57;5.60;;;3.90;;
1000;SDS011;489;47.806;12.858;2024-01-30T01:06:59;5.77;;;3.93;;
1000;SDS011;489;47.806;12.858;2024-01-30T01:09:02;4.20;;;3.50;;
1000;SDS011;489;47.806;12.858;2024-01-30T01:11:05;4.90;;;3.77;;
1000;SDS011;489;47.806;12.858;2024-01-30T01:13:07;7.60;;;4.90;;
1000;SDS011;489;47.806;12.858;2024-01-30T01:15:09;5.40;;;3.90;;
1000;SDS011;489;47.806;12.858;2024-01-30T01:17:13;5.60;;;4.13;;
1000;SDS011;489;47.806;12.858;2024-01-30T01:19:14;5.20;;;4.13;;
1000;SDS011;489;47.806;12.858;2024-01-30T01:21:16;4.33;;;3.93;;
1000;SDS011;489;47.806;12.858;2024-01-30T01:23:18;6.67;;;4.73;;
1000;SDS011;489;47.806;12.858;2024-01-30T01:25:19;7.23;;;4.27;;
1000;SDS011;489;47.806;12.858;2024-01-30T01:27:22;5.30;;;4.67;;
1000;SDS011;489;47.806;12.858;2024-01-30T01:29:23;7.33;;;5.10;;
1000;SDS011;489;47.806;12.858;2024-01-30T01:31:29;10.93;;;4.50;;
1000;SDS011;489;47.806;12.858;2024-01-30T01:33:32;5.20;;;4.03;;
1000;SDS011;489;47.806;12.858;2024-01-30T01:35:34;8.30;;;4.20;;
1000;SDS011;489;47.806;12.858;2024-01-30T01:37:36;6.50;;;5.07;;
1000;SDS011;489;47.806;12.858;2024-01-30T01:39:38;7.17;;;4.93;;
1000;SDS011;489;47.806;12.858;2024-01-30T01:41:39;6.50;;;4.53;;
1000;SDS011;489;47.806;12.858;2024-01-30T01:43:42;6.00;;;4.53;;
1000;SDS011;489;47.806;12.858;2024-01-30T01:45:43;6.00;;;4.87;;
1000;SDS011;489;47.806;12.858;2024-01-30T01:47:45;6.00;;;4.37;;
1000;SDS011;489;47.806;12.858;2024-01-30T01:49:50;5.60;;;4.70;;
1000;SDS011;489;47.806;12.858;2024-01-30T01:51:52;5.27;;;4.33;;
1000;SDS011;489;47.806;12.858;2024-01-30T01:53:57;6.80;;;4.73;;
1000;SDS011;489;47.806;12.858;2024-01-30T01:56:00;5.00;;;4.30;;
1000;SDS011;489;47.806;12.858;2024-01-30T01:58:02;7.53;;;4.60;;
1000;SDS011;489;47.806;12.858;2024-01-30T02:00:03;6.33;;;4.63;;
1000;SDS011;489;47.806;12.858;2024-01-30T02:02:09;5.20;;;4.70;;
1000;SDS011;489;47.806;12.858;2024-01-30T02:04:13;6.40;;;4.40;;
1000;SDS011;489;47.806;12.858;2024-01-30T02:06:16;4.33;;;3.83;;
1000;SDS011;489;47.806;12.858;2024-01-30T02:08:18;4.27;;;3.73;;
1000;SDS011;489;47.806;12.858;2024-01-30T02:10:20;5.87;;;4.33;;
1000;SDS011;489;47.806;12.858;2024-01-30T02:12:22;4.77;;;4.27;;
1000;SDS011;489;47.806;12.858;2024-01-30T02:14:23;5.63;;;4.00;;
1000;SDS011;489;47.806;12.858;2024-01-30T02:16:25;4.70;;;4.00;;
1000;SDS011;489;47.806;12.858;2024-01-30T02:18:28;4.17;;;3.47;;
1000;SDS011;489;47.806;12.858;2024-01-30T02:20:30;4.77;;;3.77;;
1000;SDS011;489;47.806;12.858;2024-01-30T02:22:36;4.90;;;4.20;;
1000;SDS011;489;47.806;12.858;2024-01-30T02:24:38;4.40;;;3.53;;
1000;SDS011;489;47.806;12.858;2024-01-30T02:26:40;4.23;;;3.30;;
1000;SDS011;489;47.806;12.858;2024-01-30T02:28:42;3.30;;;2.90;;
1000;SDS011;489;47.806;12.858;2024-01-30T02:30:44;5.30;;;3.40;;
1000;SDS011;489;47.806;12.858;2024-01-30T02:32:46;4.10;;;3.40;;
1000;SDS011;489;47.806;12.858;2024-01-30T02:34:48;4.53;;;3.30;;
1000;SDS011;489;47.806;12.858;2024-01-30T02:36:49;3.70;;;3.17;;
1000;SDS011;489;47.806;12.858;2024-01-30T02:38:52;4.63;;;3.10;;
1000;SDS011;489;47.806;12.858;2024-01-30T02:40:54;5.00;;;3.30;;
1000;SDS011;489;47.806;12.858;2024-01-30T02:42:59;4.80;;;3.30;;
1000;SDS011;489;47.806;12.858;2024-01-30T02:45:00;3.60;;;3.23;;
1000;SDS011;489;47.806;12.858;2024-01-30T02:47:02;4.20;;;3.03;;
1000;SDS011;489;47.806;12.858;2024-01-30T02:49:04;4.90;;;4.30;;
1000;SDS011;489;47.806;12.858;2024-01-30T02:51:06;4.20;;;3.57;;
1000;SDS011;489;47.806;12.858;2024-01-30T02:53:08;3.40;;;3.10;;
1000;SDS011;489;47.806;12.858;2024-01-30T02:55:11;3.90;;;3.43;;
1000;SDS011;489;47.806;12.858;2024-01-30T02:57:13;5.50;;;3.57;;
1000;SDS011;489;47.806;12.858;2024-01-30T02:59:15;4.70;;;3.33;;
1000;SDS011;489;47.806;12.858;2024-01-30T03:01:17;5.97;;;4.00;;
1000;SDS011;489;47.806;12.858;2024-01-30T03:03:18;4.80;;;4.00;;
1000;SDS011;489;47.806;12.858;2024-01-30T03:05:20;3.90;;;3.30;;
1000;SDS011;489;47.806;12.858;2024-01-30T03:07:23;5.70;;;3.77;;
1000;SDS011;489;47.806;12.858;2024-01-30T03:09:24;4.27;;;3.50;;
1000;SDS011;489;47.806;12.858;2024-01-30T03:11:27;3.60;;;3.20;;
1000;SDS011;489;47.806;12.858;2024-01-30T03:13:28;4.57;;;3.30;;
1000;SDS011;489;47.806;12.858;2024-01-30T03:15:31;4.80;;;3.80;;
1000;SDS011;489;47.806;12.858;2024-01-30T03:17:32;4.40;;;3.20;;
1000;SDS011;489;47.806;12.858;2024-01-30T03:19:34;5.07;;;3.77;;
1000;SDS011;489;47.806;12.858;2024-01-30T03:21:36;4.73;;;3.47;;
1000;SDS011;489;47.806;12.858;2024-01-30T03:23:38;3.50;;;3.20;;
1000;SDS011;489;47.806;12.858;2024-01-30T03:25:40;3.83;;;3.33;;
1000;SDS011;489;47.806;12.858;2024-01-30T03:27:43;3.90;;;3.50;;
1000;SDS011;489;47.806;12.858;2024-01-30T03:29:45;3.53;;;2.80;;
1000;SDS011;489;47.806;12.858;2024-01-30T03:31:47;4.60;;;3.20;;
1000;SDS011;489;47.806;12.858;2024-01-30T03:33:48;6.33;;;3.23;;
1000;SDS011;489;47.806;12.858;2024-01-30T03:35:50;3.90;;;3.30;;
1000;SDS011;489;47.806;12.858;2024-01-30T03:37:51;4.80;;;3.63;;
1000;SDS011;489;47.806;12.858;2024-01-30T03:39:53;4.00;;;3.60;;
1000;SDS011;489;47.806;12.858;2024-01-30T03:41:55;3.23;;;2.93;;
1000;SDS011;489;47.806;12.858;2024-01-30T03:43:59;7.70;;;4.30;;
1000;SDS011;489;47.806;12.858;2024-01-30T03:46:01;5.93;;;3.73;;
1000;SDS011;489;47.806;12.858;2024-01-30T03:48:03;7.23;;;3.90;;
1000;SDS011;489;47.806;12.858;2024-01-30T03:50:05;4.10;;;3.53;;
1000;SDS011;489;47.806;12.858;2024-01-30T03:52:08;6.97;;;4.40;;
1000;SDS011;489;47.806;12.858;2024-01-30T03:54:10;5.80;;;3.50;;
1000;SDS011;489;47.806;12.858;2024-01-30T03:56:12;5.00;;;3.67;;
1000;SDS011;489;47.806;12.858;2024-01-30T03:58:14;5.00;;;4.03;;
1000;SDS011;489;47.806;12.858;2024-01-30T04:00:17;4.27;;;3.80;;
1000;SDS011;489;47.806;12.858;2024-01-30T04:02:19;6.40;;;3.73;;
1000;SDS011;489;47.806;12.858;2024-01-30T04:04:21;6.47;;;4.47;;
1000;SDS011;489;47.806;12.858;2024-01-30T04:06:22;5.23;;;4.00;;
1000;SDS011;489;47.806;12.858;2024-01-30T04:08:24;4.93;;;3.97;;
1000;SDS011;489;47.806;12.858;2024-01-30T04:10:27;4.30;;;3.53;;
1000;SDS011;489;47.806;12.858;2024-01-30T04:12:29;6.27;;;3.60;;
1000;SDS011;489;47.806;12.858;2024-01-30T04:14:31;4.80;;;3.70;;
1000;SDS011;489;47.806;12.858;2024-01-30T04:16:34;4.20;;;3.60;;
1000;SDS011;489;47.806;12.858;2024-01-30T04:18:35;4.57;;;3.60;;
1000;SDS011;489;47.806;12.858;2024-01-30T04:20:37;5.60;;;3.17;;
1000;SDS011;489;47.806;12.858;2024-01-30T04:22:39;5.70;;;3.63;;
1000;SDS011;489;47.806;12.858;2024-01-30T04:24:40;4.10;;;3.70;;
1000;SDS011;489;47.806;12.858;2024-01-30T04:26:42;4.50;;;3.90;;
1000;SDS011;489;47.806;12.858;2024-01-30T04:28:44;6.70;;;4.00;;
1000;SDS011;489;47.806;12.858;2024-01-30T04:30:47;3.97;;;3.30;;
1000;SDS011;489;47.806;12.858;2024-01-30T04:32:50;5.03;;;3.60;;
1000;SDS011;489;47.806;12.858;2024-01-30T04:34:52;4.43;;;4.00;;
1000;SDS011;489;47.806;12.858;2024-01-30T04:36:53;4.70;;;3.10;;
1000;SDS011;489;47.806;12.858;2024-01-30T04:38:55;5.50;;;4.27;;
1000;SDS011;489;47.806;12.858;2024-01-30T04:40:57;4.20;;;3.70;;
1000;SDS011;489;47.806;12.858;2024-01-30T04:42:58;3.90;;;3.30;;
1000;SDS011;489;47.806;12.858;2024-01-30T04:45:00;4.03;;;3.63;;
1000;SDS011;489;47.806;12.858;2024-01-30T04:47:02;6.63;;;3.57;;
1000;SDS011;489;47.806;12.858;2024-01-30T04:49:28;4.10;;;3.30;;
1000;SDS011;489;47.806;12.858;2024-01-30T04:51:30;4.10;;;3.37;;
1000;SDS011;489;47.806;12.858;2024-01-30T04:53:32;3.93;;;3.43;;
1000;SDS011;489;47.806;12.858;2024-01-30T04:55:34;4.70;;;3.10;;
1000;SDS011;489;47.806;12.858;2024-01-30T04:57:37;5.13;;;3.83;;
1000;SDS011;489;47.806;12.858;2024-01-30T04:59:39;6.00;;;3.50;;
1000;SDS011;489;47.806;12.858;2024-01-30T05:01:41;4.70;;;3.67;;
1000;SDS011;489;47.806;12.858;2024-01-30T05:03:43;4.30;;;3.60;;
1000;SDS011;489;47.806;12.858;2024-01-30T05:05:46;5.57;;;3.73;;
1000;SDS011;489;47.806;12.858;2024-01-30T05:07:48;4.37;;;3.40;;
1000;SDS011;489;47.806;12.858;2024-01-30T05:09:50;5.47;;;3.37;;
1000;SDS011;489;47.806;12.858;2024-01-30T05:11:52;4.33;;;3.50;;
1000;SDS011;489;47.806;12.858;2024-01-30T05:13:54;3.80;;;3.40;;
1000;SDS011;489;47.806;12.858;2024-01-30T05:15:56;5.97;;;4.17;;
1000;SDS011;489;47.806;12.858;2024-01-30T05:17:58;4.63;;;3.10;;
1000;SDS011;489;47.806;12.858;2024-01-30T05:19:59;2.87;;;2.57;;
1000;SDS011;489;47.806;12.858;2024-01-30T05:22:03;3.60;;;2.80;;
1000;SDS011;489;47.806;12.858;2024-01-30T05:24:05;4.17;;;3.20;;
1000;SDS011;489;47.806;12.858;2024-01-30T05:26:08;3.00;;;2.70;;
1000;SDS011;489;47.806;12.858;2024-01-30T05:28:09;4.17;;;3.30;;
1000;SDS011;489;47.806;12.858;2024-01-30T05:30:12;3.70;;;2.77;;
1000;SDS011;489;47.806;12.858;2024-01-30T05:32:14;5.10;;;2.97;;
1000;SDS011;489;47.806;12.858;2024-01-30T05:34:16;3.70;;;3.00;;
1000;SDS011;489;47.806;12.858;2024-01-30T05:36:18;3.50;;;2.90;;
1000;SDS011;489;47.806;12.858;2024-01-30T05:38:22;3.13;;;2.80;;
1000;SDS011;489;47.806;12.858;2024-01-30T05:40:24;4.27;;;2.93;;
1000;SDS011;489;47.806;12.858;2024-01-30T05:42:26;3.73;;;3.17;;
1000;SDS011;489;47.806;12.858;2024-01-30T05:44:28;3.97;;;3.10;;
1000;SDS011;489;47.806;12.858;2024-01-30T05:46:30;3.80;;;3.20;;
1000;SDS011;489;47.806;12.858;2024-01-30T05:48:34;3.13;;;2.83;;
1000;SDS011;489;47.806;12.858;2024-01-30T05:50:35;3.30;;;3.00;;
1000;SDS011;489;47.806;12.858;2024-01-30T05:52:37;5.50;;;3.40;;
1000;SDS011;489;47.806;12.858;2024-01-30T05:54:41;3.27;;;2.57;;
1000;SDS011;489;47.806;12.858;2024-01-30T05:56:43;3.20;;;2.90;;
1000;SDS011;489;47.806;12.858;2024-01-30T05:58:45;3.70;;;2.67;;
1000;SDS011;489;47.806;12.858;2024-01-30T06:00:47;3.73;;;3.20;;
1000;SDS011;489;47.806;12.858;2024-01-30T06:02:48;4.63;;;3.10;;
1000;SDS011;489;47.806;12.858;2024-01-30T06:04:50;4.60;;;3.20;;
1000;SDS011;489;47.806;12.858;2024-01-30T06:06:52;5.00;;;3.70;;
1000;SDS011;489;47.806;12.858;2024-01-30T06:08:54;5.03;;;3.60;;
1000;SDS011;489;47.806;12.858;2024-01-30T06:10:58;4.20;;;3.10;;
1000;SDS011;489;47.806;12.858;2024-01-30T06:13:00;5.97;;;3.40;;
1000;SDS011;489;47.806;12.858;2024-01-30T06:15:02;6.40;;;3.43;;
1000;SDS011;489;47.806;12.858;2024-01-30T06:17:07;4.43;;;3.40;;
1000;SDS011;489;47.806;12.858;2024-01-30T06:19:09;4.50;;;3.43;;
1000;SDS011;489;47.806;12.858;2024-01-30T06:21:11;5.67;;;3.07;;
1000;SDS011;489;47.806;12.858;2024-01-30T06:23:13;4.80;;;3.37;;
1000;SDS011;489;47.806;12.858;2024-01-30T06:25:15;4.90;;;3.70;;
1000;SDS011;489;47.806;12.858;2024-01-30T06:27:18;5.23;;;3.43;;
1000;SDS011;489;47.806;12.858;2024-01-30T06:29:20;5.00;;;3.10;;
1000;SDS011;489;47.806;12.858;2024-01-30T06:31:21;4.60;;;3.03;;
1000;SDS011;489;47.806;12.858;2024-01-30T06:33:23;4.33;;;3.60;;
1000;SDS011;489;47.806;12.858;2024-01-30T06:35:25;6.80;;;2.97;;
1000;SDS011;489;47.806;12.858;2024-01-30T06:37:26;4.30;;;3.60;;
1000;SDS011;489;47.806;12.858;2024-01-30T06:39:27;4.30;;;3.23;;
1000;SDS011;489;47.806;12.858;2024-01-30T06:41:29;3.40;;;2.80;;
1000;SDS011;489;47.806;12.858;2024-01-30T06:43:32;4.60;;;3.10;;
1000;SDS011;489;47.806;12.858;2024-01-30T06:45:33;4.80;;;2.70;;
1000;SDS011;489;47.806;12.858;2024-01-30T06:47:35;5.33;;;3.63;;
1000;SDS011;489;47.806;12.858;2024-01-30T06:49:37;4.87;;;3.33;;
1000;SDS011;489;47.806;12.858;2024-01-30T06:51:38;4.00;;;3.20;;
1000;SDS011;489;47.806;12.858;2024-01-30T06:53:40;5.27;;;2.80;;
1000;SDS011;489;47.806;12.858;2024-01-30T06:55:42;5.00;;;3.03;;
1000;SDS011;489;47.806;12.858;2024-01-30T06:57:44;2.90;;;2.47;;
1000;SDS011;489;47.806;12.858;2024-01-30T06:59:46;3.77;;;3.10;;
1000;SDS011;489;47.806;12.858;2024-01-30T07:01:48;3.90;;;2.70;;
1000;SDS011;489;47.806;12.858;2024-01-30T07:03:50;4.90;;;2.70;;
1000;SDS011;489;47.806;12.858;2024-01-30T07:05:51;4.00;;;2.67;;
1000;SDS011;489;47.806;12.858;2024-01-30T07:07:53;2.80;;;2.20;;
1000;SDS011;489;47.806;12.858;2024-01-30T07:09:55;2.97;;;2.37;;
1000;SDS011;489;47.806;12.858;2024-01-30T07:11:57;3.10;;;2.60;;
1000;SDS011;489;47.806;12.858;2024-01-30T07:13:58;3.33;;;2.50;;
1000;SDS011;489;47.806;12.858;2024-01-30T07:16:02;3.77;;;2.60;;
1000;SDS011;489;47.806;12.858;2024-01-30T07:18:03;4.80;;;2.83;;
1000;SDS011;489;47.806;12.858;2024-01-30T07:20:06;3.20;;;2.43;;
1000;SDS011;489;47.806;12.858;2024-01-30T07:22:08;3.40;;;2.30;;
1000;SDS011;489;47.806;12.858;2024-01-30T07:24:09;3.20;;;2.60;;
1000;SDS011;489;47.806;12.858;2024-01-30T07:26:12;3.70;;;2.70;;
1000;SDS011;489;47.806;12.858;2024-01-30T07:28:14;3.03;;;2.73;;
1000;SDS011;489;47.806;12.858;2024-01-30T07:30:17;3.07;;;2.40;;
1000;SDS011;489;47.806;12.858;2024-01-30T07:32:20;3.00;;;2.70;;
1000;SDS011;489;47.806;12.858;2024-01-30T07:34:22;2.87;;;2.50;;
1000;SDS011;489;47.806;12.858;2024-01-30T07:36:24;2.73;;;2.40;;
1000;SDS011;489;47.806;12.858;2024-01-30T07:38:26;3.40;;;2.50;;
1000;SDS011;489;47.806;12.858;2024-01-30T07:40:28;5.33;;;2.50;;
1000;SDS011;489;47.806;12.858;2024-01-30T07:42:30;4.77;;;2.83;;
1000;SDS011;489;47.806;12.858;2024-01-30T07:44:32;3.90;;;2.70;;
1000;SDS011;489;47.806;12.858;2024-01-30T07:46:34;4.53;;;2.37;;
1000;SDS011;489;47.806;12.858;2024-01-30T07:48:38;2.67;;;2.03;;
1000;SDS011;489;47.806;12.858;2024-01-30T07:50:41;4.37;;;2.70;;
1000;SDS011;489;47.806;12.858;2024-01-30T07:52:43;3.23;;;2.50;;
1000;SDS011;489;47.806;12.858;2024-01-30T07:54:45;2.53;;;1.90;;
1000;SDS011;489;47.806;12.858;2024-01-30T07:56:47;2.57;;;2.20;;
1000;SDS011;489;47.806;12.858;2024-01-30T07:58:48;2.83;;;2.40;;
1000;SDS011;489;47.806;12.858;2024-01-30T08:00:50;2.93;;;1.90;;
1000;SDS011;489;47.806;12.858;2024-01-30T08:02:53;2.40;;;2.13;;
1000;SDS011;489;47.806;12.858;2024-01-30T08:04:57;2.87;;;2.50;;
1000;SDS011;489;47.806;12.858;2024-01-30T08:06:59;4.27;;;2.60;;
1000;SDS011;489;47.806;12.858;2024-01-30T08:09:01;3.97;;;2.20;;
1000;SDS011;489;47.806;12.858;2024-01-30T08:11:03;3.43;;;2.60;;
1000;SDS011;489;47.806;12.858;2024-01-30T08:13:05;4.43;;;2.73;;
1000;SDS011;489;47.806;12.858;2024-01-30T08:15:09;4.23;;;2.40;;
1000;SDS011;489;47.806;12.858;2024-01-30T08:17:12;2.73;;;2.33;;
1000;SDS011;489;47.806;12.858;2024-01-30T08:19:15;3.13;;;2.30;;
1000;SDS011;489;47.806;12.858;2024-01-30T08:21:18;3.20;;;2.37;;
1000;SDS011;489;47.806;12.858;2024-01-30T08:23:20;4.23;;;3.30;;
1000;SDS011;489;47.806;12.858;2024-01-30T08:25:22;3.33;;;2.13;;
1000;SDS011;489;47.806;12.858;2024-01-30T08:27:24;4.73;;;2.80;;
1000;SDS011;489;47.806;12.858;2024-01-30T08:29:25;3.77;;;2.50;;
1000;SDS011;489;47.806;12.858;2024-01-30T08:31:27;3.97;;;2.70;;
1000;SDS011;489;47.806;12.858;2024-01-30T08:33:30;4.00;;;3.27;;
1000;SDS011;489;47.806;12.858;2024-01-30T08:35:32;4.10;;;3.57;;
1000;SDS011;489;47.806;12.858;2024-01-30T08:37:35;6.37;;;4.10;;
1000;SDS011;489;47.806;12.858;2024-01-30T08:39:37;4.37;;;3.77;;
1000;SDS011;489;47.806;12.858;2024-01-30T08:41:39;4.00;;;3.30;;
1000;SDS011;489;47.806;12.858;2024-01-30T08:43:41;4.53;;;3.33;;
1000;SDS011;489;47.806;12.858;2024-01-30T08:45:44;4.27;;;3.40;;
1000;SDS011;489;47.806;12.858;2024-01-30T08:47:46;4.13;;;3.73;;
1000;SDS011;489;47.806;12.858;2024-01-30T08:49:49;3.57;;;3.13;;
1000;SDS011;489;47.806;12.858;2024-01-30T08:51:51;4.20;;;3.37;;
1000;SDS011;489;47.806;12.858;2024-01-30T08:53:54;4.10;;;3.70;;
1000;SDS011;489;47.806;12.858;2024-01-30T08:55:56;4.03;;;3.63;;
1000;SDS011;489;47.806;12.858;2024-01-30T08:57:59;3.53;;;3.23;;
1000;SDS011;489;47.806;12.858;2024-01-30T09:00:00;3.77;;;3.27;;
1000;SDS011;489;47.806;12.858;2024-01-30T09:02:06;5.23;;;3.20;;
1000;SDS011;489;47.806;12.858;2024-01-30T09:04:10;3.23;;;2.93;;
1000;SDS011;489;47.806;12.858;2024-01-30T09:06:12;3.20;;;2.60;;
1000;SDS011;489;47.806;12.858;2024-01-30T09:08:14;3.80;;;3.00;;
1000;SDS011;489;47.806;12.858;2024-01-30T09:10:17;4.17;;;3.50;;
1000;SDS011;489;47.806;12.858;2024-01-30T09:12:19;3.80;;;3.30;;
1000;SDS011;489;47.806;12.858;2024-01-30T09:14:21;2.83;;;2.53;;
1000;SDS011;489;47.806;12.858;2024-01-30T09:16:23;3.93;;;2.90;;
1000;SDS011;489;47.806;12.858;2024-01-30T09:18:25;3.83;;;3.10;;
1000;SDS011;489;47.806;12.858;2024-01-30T09:20:27;3.50;;;2.80;;
1000;SDS011;489;47.806;12.858;2024-01-30T09:22:29;3.37;;;2.97;;
1000;SDS011;489;47.806;12.858;2024-01-30T09:24:31;5.03;;;3.63;;
1000;SDS011;489;47.806;12.858;2024-01-30T09:26:35;5.20;;;3.83;;
1000;SDS011;489;47.806;12.858;2024-01-30T09:28:40;5.17;;;4.50;;
1000;SDS011;489;47.806;12.858;2024-01-30T09:30:42;5.50;;;4.20;;
1000;SDS011;489;47.806;12.858;2024-01-30T09:32:44;5.60;;;4.00;;
1000;SDS011;489;47.806;12.858;2024-01-30T09:34:46;3.83;;;3.40;;
1000;SDS011;489;47.806;12.858;2024-01-30T09:36:48;3.20;;;2.90;;
1000;SDS011;489;47.806;12.858;2024-01-30T09:38:50;3.20;;;2.90;;
1000;SDS011;489;47.806;12.858;2024-01-30T09:40:53;5.10;;;2.93;;
1000;SDS011;489;47.806;12.858;2024-01-30T09:42:57;3.10;;;2.10;;
1000;SDS011;489;47.806;12.858;2024-01-30T09:45:01;2.40;;;2.07;;
1000;SDS011;489;47.806;12.858;2024-01-30T09:47:03;4.40;;;2.87;;
1000;SDS011;489;47.806;12.858;2024-01-30T09:49:06;3.77;;;2.30;;
1000;SDS011;489;47.806;12.858;2024-01-30T09:51:09;5.00;;;3.00;;
1000;SDS011;489;47.806;12.858;2024-01-30T09:53:11;3.93;;;3.40;;
1000;SDS011;489;47.806;12.858;2024-01-30T09:55:13;5.20;;;3.10;;
1000;SDS011;489;47.806;12.858;2024-01-30T09:57:14;4.80;;;3.20;;
1000;SDS011;489;47.806;12.858;2024-01-30T09:59:18;3.53;;;2.33;;
1000;SDS011;489;47.806;12.858;2024-01-30T10:01:19;4.87;;;2.33;;
1000;SDS011;489;47.806;12.858;2024-01-30T10:03:21;1.90;;;1.80;;
1000;SDS011;489;47.806;12.858;2024-01-30T10:05:22;4.17;;;2.83;;
1000;SDS011;489;47.806;12.858;2024-01-30T10:07:28;5.20;;;4.00;;
1000;SDS011;489;47.806;12.858;2024-01-30T10:09:31;3.20;;;2.67;;
1000;SDS011;489;47.806;12.858;2024-01-30T10:11:34;2.30;;;2.10;;
1000;SDS011;489;47.806;12.858;2024-01-30T10:13:38;3.03;;;1.90;;
1000;SDS011;489;47.806;12.858;2024-01-30T10:15:42;2.17;;;1.60;;
1000;SDS011;489;47.806;12.858;2024-01-30T10:17:43;2.93;;;2.50;;
1000;SDS011;489;47.806;12.858;2024-01-30T10:19:45;2.70;;;1.93;;
1000;SDS011;489;47.806;12.858;2024-01-30T10:21:48;2.43;;;1.97;;
1000;SDS011;489;47.806;12.858;2024-01-30T10:23:49;3.20;;;2.00;;
1000;SDS011;489;47.806;12.858;2024-01-30T10:25:51;2.90;;;2.60;;
1000;SDS011;489;47.806;12.858;2024-01-30T10:27:53;3.00;;;2.70;;
1000;SDS011;489;47.806;12.858;2024-01-30T10:29:55;3.03;;;2.20;;
1000;SDS011;489;47.806;12.858;2024-01-30T10:31:58;2.80;;;2.30;;
1000;SDS011;489;47.806;12.858;2024-01-30T10:34:01;1.97;;;1.83;;
1000;SDS011;489;47.806;12.858;2024-01-30T10:36:04;2.50;;;1.97;;
1000;SDS011;489;47.806;12.858;2024-01-30T10:38:06;2.37;;;2.17;;
1000;SDS011;489;47.806;12.858;2024-01-30T10:40:12;2.37;;;1.93;;
1000;SDS011;489;47.806;12.858;2024-01-30T10:42:17;3.50;;;2.70;;
1000;SDS011;489;47.806;12.858;2024-01-30T10:44:19;2.67;;;2.20;;
1000;SDS011;489;47.806;12.858;2024-01-30T10:46:24;2.57;;;2.37;;
1000;SDS011;489;47.806;12.858;2024-01-30T10:48:32;2.33;;;2.13;;
1000;SDS011;489;47.806;12.858;2024-01-30T10:50:34;2.30;;;2.10;;
1000;SDS011;489;47.806;12.858;2024-01-30T10:52:37;2.17;;;1.93;;
1000;SDS011;489;47.806;12.858;2024-01-30T10:54:39;2.30;;;2.10;;
1000;SDS011;489;47.806;12.858;2024-01-30T10:56:41;3.97;;;2.33;;
1000;SDS011;489;47.806;12.858;2024-01-30T10:58:44;2.50;;;2.27;;
1000;SDS011;489;47.806;12.858;2024-01-30T11:00:46;2.53;;;2.33;;
1000;SDS011;489;47.806;12.858;2024-01-30T11:02:48;3.30;;;2.50;;
1000;SDS011;489;47.806;12.858;2024-01-30T11:04:54;2.53;;;2.27;;
1000;SDS011;489;47.806;12.858;2024-01-30T11:06:57;2.43;;;2.23;;
1000;SDS011;489;47.806;12.858;2024-01-30T11:09:00;2.23;;;2.03;;
1000;SDS011;489;47.806;12.858;2024-01-30T11:11:03;1.90;;;1.70;;
1000;SDS011;489;47.806;12.858;2024-01-30T11:13:10;2.93;;;2.10;;
1000;SDS011;489;47.806;12.858;2024-01-30T11:15:15;3.40;;;2.17;;
1000;SDS011;489;47.806;12.858;2024-01-30T11:17:17;1.73;;;1.63;;
1000;SDS011;489;47.806;12.858;2024-01-30T11:19:22;2.23;;;2.00;;
1000;SDS011;489;47.806;12.858;2024-01-30T11:21:26;2.70;;;1.80;;
1000;SDS011;489;47.806;12.858;2024-01-30T11:23:28;1.73;;;1.57;;
1000;SDS011;489;47.806;12.858;2024-01-30T11:25:30;2.00;;;1.80;;
1000;SDS011;489;47.806;12.858;2024-01-30T11:27:32;3.00;;;1.80;;
1000;SDS011;489;47.806;12.858;2024-01-30T11:29:33;2.53;;;1.97;;
1000;SDS011;489;47.806;12.858;2024-01-30T11:31:37;2.37;;;1.97;;
1000;SDS011;489;47.806;12.858;2024-01-30T11:33:38;3.17;;;2.30;;
1000;SDS011;489;47.806;12.858;2024-01-30T11:35:40;2.10;;;1.90;;
1000;SDS011;489;47.806;12.858;2024-01-30T11:37:44;1.90;;;1.70;;
1000;SDS011;489;47.806;12.858;2024-01-30T11:39:49;2.33;;;2.13;;
1000;SDS011;489;47.806;12.858;2024-01-30T11:41:51;1.70;;;1.60;;
1000;SDS011;489;47.806;12.858;2024-01-30T11:43:54;1.80;;;1.70;;
1000;SDS011;489;47.806;12.858;2024-01-30T11:45:56;2.00;;;1.80;;
1000;SDS011;489;47.806;12.858;2024-01-30T11:47:58;2.00;;;1.77;;
1000;SDS011;489;47.806;12.858;2024-01-30T11:50:00;1.60;;;1.50;;
1000;SDS011;489;47.806;12.858;2024-01-30T11:52:04;2.03;;;1.90;;
1000;SDS011;489;47.806;12.858;2024-01-30T11:54:08;2.30;;;2.10;;
1000;SDS011;489;47.806;12.858;2024-01-30T11:56:12;2.40;;;1.87;;
1000;SDS011;489;47.806;12.858;2024-01-30T11:58:14;2.10;;;1.90;;
1000;SDS011;489;47.806;12.858;2024-01-30T12:00:15;1.90;;;1.80;;
1000;SDS011;489;47.806;12.858;2024-01-30T12:02:21;2.90;;;2.10;;
1000;SDS011;489;47.806;12.858;2024-01-30T12:04:27;2.27;;;1.90;;
1000;SDS011;489;47.806;12.858;2024-01-30T12:06:29;2.27;;;1.80;;
1000;SDS011;489;47.806;12.858;2024-01-30T12:08:31;2.10;;;1.90;;
1000;SDS011;489;47.806;12.858;2024-01-30T12:10:34;2.07;;;1.90;;
1000;SDS011;489;47.806;12.858;2024-01-30T12:12:36;2.37;;;2.17;;
1000;SDS011;489;47.806;12.858;2024-01-30T12:14:39;2.17;;;1.97;;
1000;SDS011;489;47.806;12.858;2024-01-30T12:16:59;3.03;;;2.40;;
1000;SDS011;489;47.806;12.858;2024-01-30T12:19:03;2.20;;;2.00;;
1000;SDS011;489;47.806;12.858;2024-01-30T12:21:05;3.07;;;1.87;;
1000;SDS011;489;47.806;12.858;2024-01-30T12:23:09;4.50;;;2.40;;
1000;SDS011;489;47.806;12.858;2024-01-30T12:25:11;3.07;;;1.83;;
1000;SDS011;489;47.806;12.858;2024-01-30T12:27:16;1.90;;;1.80;;
1000;SDS011;489;47.806;12.858;2024-01-30T12:29:19;2.20;;;2.00;;
1000;SDS011;489;47.806;12.858;2024-01-30T12:31:25;1.73;;;1.63;;
1000;SDS011;489;47.806;12.858;2024-01-30T12:33:28;2.87;;;2.00;;
1000;SDS011;489;47.806;12.858;2024-01-30T12:35:30;2.20;;;1.97;;
1000;SDS011;489;47.806;12.858;2024-01-30T12:37:32;2.20;;;1.57;;
1000;SDS011;489;47.806;12.858;2024-01-30T12:39:33;1.80;;;1.70;;
1000;SDS011;489;47.806;12.858;2024-01-30T12:41:36;1.70;;;1.60;;